sensor_id;sensor_type;location;lat;lon;timestamp;pressure;altitude;pressure_sealevel;temperature;humidity
25947;BME280;13745;51.470;9.894;2024-02-23T00:01:30;96442.13;;;9.67;72.21
25947;BME280;13745;51.470;9.894;2024-02-23T00:04:15;96438.81;;;9.65;71.76
25947;BME280;13745;51.470;9.894;2024-02-23T00:07:02;96445.81;;;9.63;72.02
25947;BME280;13745;51.470;9.894;2024-02-23T00:09:47;96467.59;;;9.58;72.02
25947;BME280;13745;51.470;9.894;2024-02-23T00:12:32;96489.38;;;9.54;71.80
25947;BME280;13745;51.470;9.894;2024-02-23T00:15:17;96453.44;;;9.50;71.93
25947;BME280;13745;51.470;9.894;2024-02-23T00:18:04;96446.59;;;9.49;71.71
25947;BME280;13745;51.470;9.894;2024-02-23T00:20:50;96463.78;;;9.50;71.36
25947;BME280;13745;51.470;9.894;2024-02-23T00:23:35;96458.50;;;9.51;71.14
25947;BME280;13745;51.470;9.894;2024-02-23T00:26:20;96449.91;;;9.51;70.79
25947;BME280;13745;51.470;9.894;2024-02-23T00:29:05;96461.19;;;9.50;70.54
25947;BME280;13745;51.470;9.894;2024-02-23T00:31:50;96473.38;;;9.48;70.33
25947;BME280;13745;51.470;9.894;2024-02-23T00:34:36;96481.31;;;9.45;70.00
25947;BME280;13745;51.470;9.894;2024-02-23T00:37:21;96487.47;;;9.42;70.24
25947;BME280;13745;51.470;9.894;2024-02-23T00:40:07;96485.06;;;9.39;69.98
25947;BME280;13745;51.470;9.894;2024-02-23T00:42:53;96491.25;;;9.37;69.59
25947;BME280;13745;51.470;9.894;2024-02-23T00:45:38;96511.16;;;9.35;69.78
25947;BME280;13745;51.470;9.894;2024-02-23T00:48:24;96512.84;;;9.36;69.63
25947;BME280;13745;51.470;9.894;2024-02-23T00:51:11;96518.91;;;9.35;69.42
25947;BME280;13745;51.470;9.894;2024-02-23T00:53:56;96515.44;;;9.36;69.24
25947;BME280;13745;51.470;9.894;2024-02-23T00:56:41;96546.34;;;9.37;69.01
25947;BME280;13745;51.470;9.894;2024-02-23T00:59:26;96583.28;;;9.39;69.05
25947;BME280;13745;51.470;9.894;2024-02-23T01:02:11;96610.91;;;9.39;69.16
25947;BME280;13745;51.470;9.894;2024-02-23T01:04:56;96594.13;;;9.30;69.39
25947;BME280;13745;51.470;9.894;2024-02-23T01:07:44;96578.28;;;9.20;69.53
25947;BME280;13745;51.470;9.894;2024-02-23T01:10:28;96619.19;;;9.12;69.74
25947;BME280;13745;51.470;9.894;2024-02-23T01:13:14;96650.69;;;9.03;69.15
25947;BME280;13745;51.470;9.894;2024-02-23T01:15:58;96660.63;;;8.93;68.20
25947;BME280;13745;51.470;9.894;2024-02-23T01:18:43;96652.44;;;8.85;67.82
25947;BME280;13745;51.470;9.894;2024-02-23T01:21:28;96660.59;;;8.78;67.89
25947;BME280;13745;51.470;9.894;2024-02-23T01:24:15;96687.38;;;8.75;68.04
25947;BME280;13745;51.470;9.894;2024-02-23T01:27:00;96678.97;;;8.71;67.70
25947;BME280;13745;51.470;9.894;2024-02-23T01:29:44;96698.03;;;8.69;66.62
25947;BME280;13745;51.470;9.894;2024-02-23T01:32:30;96703.22;;;8.69;66.29
25947;BME280;13745;51.470;9.894;2024-02-23T01:35:14;96691.97;;;8.70;66.35
25947;BME280;13745;51.470;9.894;2024-02-23T01:37:59;96682.47;;;8.70;66.30
25947;BME280;13745;51.470;9.894;2024-02-23T01:40:46;96747.94;;;8.69;66.13
25947;BME280;13745;51.470;9.894;2024-02-23T01:43:31;96733.50;;;8.65;66.06
25947;BME280;13745;51.470;9.894;2024-02-23T01:46:17;96731.19;;;8.59;65.78
25947;BME280;13745;51.470;9.894;2024-02-23T01:49:03;96729.78;;;8.54;65.91
25947;BME280;13745;51.470;9.894;2024-02-23T01:51:48;96739.47;;;8.49;65.45
25947;BME280;13745;51.470;9.894;2024-02-23T01:54:34;96730.13;;;8.46;65.60
25947;BME280;13745;51.470;9.894;2024-02-23T01:57:20;96756.78;;;8.47;65.70
25947;BME280;13745;51.470;9.894;2024-02-23T02:00:07;96749.03;;;8.47;65.82
25947;BME280;13745;51.470;9.894;2024-02-23T02:03:03;96762.84;;;8.46;66.12
25947;BME280;13745;51.470;9.894;2024-02-23T02:05:48;96751.75;;;8.43;66.03
25947;BME280;13745;51.470;9.894;2024-02-23T02:08:34;96762.16;;;8.42;66.19
25947;BME280;13745;51.470;9.894;2024-02-23T02:11:20;96770.03;;;8.39;65.97
25947;BME280;13745;51.470;9.894;2024-02-23T02:14:06;96764.97;;;8.37;65.60
25947;BME280;13745;51.470;9.894;2024-02-23T02:16:51;96783.13;;;8.34;66.16
25947;BME280;13745;51.470;9.894;2024-02-23T02:19:36;96794.34;;;8.33;66.47
25947;BME280;13745;51.470;9.894;2024-02-23T02:22:21;96788.44;;;8.31;66.31
25947;BME280;13745;51.470;9.894;2024-02-23T02:25:06;96786.00;;;8.28;66.21
25947;BME280;13745;51.470;9.894;2024-02-23T02:27:52;96801.69;;;8.24;66.46
25947;BME280;13745;51.470;9.894;2024-02-23T02:30:38;96803.44;;;8.23;66.59
25947;BME280;13745;51.470;9.894;2024-02-23T02:33:23;96805.25;;;8.21;67.06
25947;BME280;13745;51.470;9.894;2024-02-23T02:36:09;96828.59;;;8.18;67.12
25947;BME280;13745;51.470;9.894;2024-02-23T02:38:55;96827.91;;;8.14;67.19
25947;BME280;13745;51.470;9.894;2024-02-23T02:41:40;96821.09;;;8.13;67.32
25947;BME280;13745;51.470;9.894;2024-02-23T02:44:25;96831.41;;;8.13;67.07
25947;BME280;13745;51.470;9.894;2024-02-23T02:47:15;96836.63;;;8.12;67.52
25947;BME280;13745;51.470;9.894;2024-02-23T02:50:00;96853.97;;;8.08;67.14
25947;BME280;13745;51.470;9.894;2024-02-23T02:52:45;96837.09;;;8.01;66.90
25947;BME280;13745;51.470;9.894;2024-02-23T02:55:31;96855.38;;;7.97;67.59
25947;BME280;13745;51.470;9.894;2024-02-23T02:58:16;96856.38;;;7.93;67.44
25947;BME280;13745;51.470;9.894;2024-02-23T03:01:01;96864.28;;;7.89;66.88
25947;BME280;13745;51.470;9.894;2024-02-23T03:03:47;96878.16;;;7.87;67.45
25947;BME280;13745;51.470;9.894;2024-02-23T03:06:32;96875.75;;;7.82;67.69
25947;BME280;13745;51.470;9.894;2024-02-23T03:09:17;96877.63;;;7.79;67.72
25947;BME280;13745;51.470;9.894;2024-02-23T03:12:02;96874.25;;;7.77;67.52
25947;BME280;13745;51.470;9.894;2024-02-23T03:14:47;96882.97;;;7.74;67.51
25947;BME280;13745;51.470;9.894;2024-02-23T03:17:33;96891.75;;;7.70;67.72
25947;BME280;13745;51.470;9.894;2024-02-23T03:20:19;96891.94;;;7.66;67.98
25947;BME280;13745;51.470;9.894;2024-02-23T03:23:04;96893.81;;;7.62;68.34
25947;BME280;13745;51.470;9.894;2024-02-23T03:25:49;96903.41;;;7.58;68.52
25947;BME280;13745;51.470;9.894;2024-02-23T03:28:34;96906.22;;;7.52;68.36
25947;BME280;13745;51.470;9.894;2024-02-23T03:31:20;96917.66;;;7.47;68.86
25947;BME280;13745;51.470;9.894;2024-02-23T03:34:05;96920.53;;;7.39;69.38
25947;BME280;13745;51.470;9.894;2024-02-23T03:36:51;96927.75;;;7.31;68.84
25947;BME280;13745;51.470;9.894;2024-02-23T03:39:36;96940.09;;;7.23;69.16
25947;BME280;13745;51.470;9.894;2024-02-23T03:42:22;96937.81;;;7.15;69.27
25947;BME280;13745;51.470;9.894;2024-02-23T03:45:07;96938.03;;;7.09;69.84
25947;BME280;13745;51.470;9.894;2024-02-23T03:47:53;96939.19;;;7.02;70.12
25947;BME280;13745;51.470;9.894;2024-02-23T03:50:38;96962.47;;;6.99;69.72
25947;BME280;13745;51.470;9.894;2024-02-23T03:53:24;96961.88;;;6.92;69.89
25947;BME280;13745;51.470;9.894;2024-02-23T03:56:09;96967.25;;;6.86;70.18
25947;BME280;13745;51.470;9.894;2024-02-23T03:58:54;96970.91;;;6.81;70.46
25947;BME280;13745;51.470;9.894;2024-02-23T04:01:39;96973.63;;;6.76;70.51
25947;BME280;13745;51.470;9.894;2024-02-23T04:04:24;96977.25;;;6.72;70.56
25947;BME280;13745;51.470;9.894;2024-02-23T04:07:09;96981.66;;;6.68;70.47
25947;BME280;13745;51.470;9.894;2024-02-23T04:09:56;96977.59;;;6.63;70.50
25947;BME280;13745;51.470;9.894;2024-02-23T04:12:41;96981.16;;;6.59;70.89
25947;BME280;13745;51.470;9.894;2024-02-23T04:15:26;96993.31;;;6.54;70.55
25947;BME280;13745;51.470;9.894;2024-02-23T04:18:11;96982.25;;;6.52;70.77
25947;BME280;13745;51.470;9.894;2024-02-23T04:20:56;97004.59;;;6.51;71.10
25947;BME280;13745;51.470;9.894;2024-02-23T04:23:43;97002.97;;;6.48;71.06
25947;BME280;13745;51.470;9.894;2024-02-23T04:26:29;97003.09;;;6.45;70.88
25947;BME280;13745;51.470;9.894;2024-02-23T04:29:14;97001.34;;;6.46;70.70
25947;BME280;13745;51.470;9.894;2024-02-23T04:31:59;97011.59;;;6.47;70.86
25947;BME280;13745;51.470;9.894;2024-02-23T04:34:44;97007.22;;;6.50;70.47
25947;BME280;13745;51.470;9.894;2024-02-23T04:37:29;97019.19;;;6.51;70.27
25947;BME280;13745;51.470;9.894;2024-02-23T04:40:14;97020.78;;;6.55;70.31
25947;BME280;13745;51.470;9.894;2024-02-23T04:43:01;97036.03;;;6.59;70.83
25947;BME280;13745;51.470;9.894;2024-02-23T04:45:46;97044.50;;;6.63;70.02
25947;BME280;13745;51.470;9.894;2024-02-23T04:48:31;97041.88;;;6.64;70.48
25947;BME280;13745;51.470;9.894;2024-02-23T04:51:16;97046.06;;;6.67;70.29
25947;BME280;13745;51.470;9.894;2024-02-23T04:54:01;97054.56;;;6.69;70.25
25947;BME280;13745;51.470;9.894;2024-02-23T04:56:47;97067.41;;;6.70;69.79
25947;BME280;13745;51.470;9.894;2024-02-23T04:59:33;97074.22;;;6.71;69.90
25947;BME280;13745;51.470;9.894;2024-02-23T05:02:18;97082.78;;;6.72;70.19
25947;BME280;13745;51.470;9.894;2024-02-23T05:05:04;97084.47;;;6.73;69.71
25947;BME280;13745;51.470;9.894;2024-02-23T05:07:49;97075.00;;;6.73;69.55
25947;BME280;13745;51.470;9.894;2024-02-23T05:10:34;97079.97;;;6.78;69.92
25947;BME280;13745;51.470;9.894;2024-02-23T05:13:19;97080.88;;;6.77;70.07
25947;BME280;13745;51.470;9.894;2024-02-23T05:16:06;97090.25;;;6.80;70.06
25947;BME280;13745;51.470;9.894;2024-02-23T05:18:51;97085.88;;;6.82;69.96
25947;BME280;13745;51.470;9.894;2024-02-23T05:21:36;97087.59;;;6.81;69.72
25947;BME280;13745;51.470;9.894;2024-02-23T05:24:20;97099.78;;;6.76;69.89
25947;BME280;13745;51.470;9.894;2024-02-23T05:27:05;97103.31;;;6.73;70.07
25947;BME280;13745;51.470;9.894;2024-02-23T05:29:50;97109.41;;;6.71;70.45
25947;BME280;13745;51.470;9.894;2024-02-23T05:32:37;97106.16;;;6.66;70.67
25947;BME280;13745;51.470;9.894;2024-02-23T05:35:22;97103.69;;;6.63;70.29
25947;BME280;13745;51.470;9.894;2024-02-23T05:38:06;97113.28;;;6.58;70.63
25947;BME280;13745;51.470;9.894;2024-02-23T05:40:51;97097.97;;;6.55;70.21
25947;BME280;13745;51.470;9.894;2024-02-23T05:43:36;97119.47;;;6.52;70.49
25947;BME280;13745;51.470;9.894;2024-02-23T05:46:21;97115.22;;;6.51;70.38
25947;BME280;13745;51.470;9.894;2024-02-23T05:49:07;97117.81;;;6.51;70.23
25947;BME280;13745;51.470;9.894;2024-02-23T05:51:53;97118.66;;;6.52;70.56
25947;BME280;13745;51.470;9.894;2024-02-23T05:54:38;97120.50;;;6.48;70.34
25947;BME280;13745;51.470;9.894;2024-02-23T05:57:23;97124.69;;;6.51;70.13
25947;BME280;13745;51.470;9.894;2024-02-23T06:00:09;97134.13;;;6.50;70.33
25947;BME280;13745;51.470;9.894;2024-02-23T06:02:57;97134.13;;;6.50;70.28
25947;BME280;13745;51.470;9.894;2024-02-23T06:05:43;97135.94;;;6.48;70.69
25947;BME280;13745;51.470;9.894;2024-02-23T06:08:28;97135.94;;;6.48;70.74
25947;BME280;13745;51.470;9.894;2024-02-23T06:11:13;97150.41;;;6.51;70.42
25947;BME280;13745;51.470;9.894;2024-02-23T06:13:58;97147.84;;;6.51;70.65
25947;BME280;13745;51.470;9.894;2024-02-23T06:16:43;97150.38;;;6.52;70.20
25947;BME280;13745;51.470;9.894;2024-02-23T06:19:29;97151.25;;;6.51;70.27
25947;BME280;13745;51.470;9.894;2024-02-23T06:22:15;97155.63;;;6.49;70.18
25947;BME280;13745;51.470;9.894;2024-02-23T06:25:05;97150.47;;;6.49;70.76
25947;BME280;13745;51.470;9.894;2024-02-23T06:27:50;97159.88;;;6.50;70.56
25947;BME280;13745;51.470;9.894;2024-02-23T06:30:35;97161.59;;;6.50;70.49
25947;BME280;13745;51.470;9.894;2024-02-23T06:33:20;97166.75;;;6.50;70.64
25947;BME280;13745;51.470;9.894;2024-02-23T06:36:05;97155.69;;;6.47;70.55
25947;BME280;13745;51.470;9.894;2024-02-23T06:38:52;97161.56;;;6.51;70.53
25947;BME280;13745;51.470;9.894;2024-02-23T06:41:37;97177.00;;;6.51;70.38
25947;BME280;13745;51.470;9.894;2024-02-23T06:44:23;97163.28;;;6.51;71.15
25947;BME280;13745;51.470;9.894;2024-02-23T06:47:08;97182.13;;;6.51;70.41
25947;BME280;13745;51.470;9.894;2024-02-23T06:49:53;97194.06;;;6.54;70.71
25947;BME280;13745;51.470;9.894;2024-02-23T06:52:38;97194.06;;;6.54;70.62
25947;BME280;13745;51.470;9.894;2024-02-23T06:55:25;97188.88;;;6.55;70.52
25947;BME280;13745;51.470;9.894;2024-02-23T06:58:10;97199.97;;;6.57;71.08
25947;BME280;13745;51.470;9.894;2024-02-23T07:00:57;97203.38;;;6.58;71.02
25947;BME280;13745;51.470;9.894;2024-02-23T07:03:42;97206.06;;;6.55;71.07
25947;BME280;13745;51.470;9.894;2024-02-23T07:06:29;97217.13;;;6.57;71.00
25947;BME280;13745;51.470;9.894;2024-02-23T07:09:16;97219.66;;;6.58;70.82
25947;BME280;13745;51.470;9.894;2024-02-23T07:12:03;97229.94;;;6.58;71.16
25947;BME280;13745;51.470;9.894;2024-02-23T07:14:48;97236.00;;;6.57;70.92
25947;BME280;13745;51.470;9.894;2024-02-23T07:17:34;97244.56;;;6.58;71.60
25947;BME280;13745;51.470;9.894;2024-02-23T07:20:19;97237.53;;;6.63;70.79
25947;BME280;13745;51.470;9.894;2024-02-23T07:23:04;97262.22;;;6.68;70.90
25947;BME280;13745;51.470;9.894;2024-02-23T07:25:50;97264.72;;;6.71;70.77
25947;BME280;13745;51.470;9.894;2024-02-23T07:28:36;97262.88;;;6.75;71.09
25947;BME280;13745;51.470;9.894;2024-02-23T07:31:21;97262.91;;;6.73;71.49
25947;BME280;13745;51.470;9.894;2024-02-23T07:34:06;97260.28;;;6.75;71.81
25947;BME280;13745;51.470;9.894;2024-02-23T07:36:53;97272.22;;;6.78;71.35
25947;BME280;13745;51.470;9.894;2024-02-23T07:39:38;97281.47;;;6.83;71.43
25947;BME280;13745;51.470;9.894;2024-02-23T07:42:23;97276.97;;;6.90;71.45
25947;BME280;13745;51.470;9.894;2024-02-23T07:45:10;97278.34;;;7.00;71.35
25947;BME280;13745;51.470;9.894;2024-02-23T07:47:55;97273.47;;;7.17;71.02
25947;BME280;13745;51.470;9.894;2024-02-23T07:50:40;97287.38;;;7.38;70.61
25947;BME280;13745;51.470;9.894;2024-02-23T07:53:25;97283.72;;;7.44;70.48
25947;BME280;13745;51.470;9.894;2024-02-23T07:56:10;97281.09;;;7.45;69.45
25947;BME280;13745;51.470;9.894;2024-02-23T07:58:56;97286.03;;;7.51;69.97
25947;BME280;13745;51.470;9.894;2024-02-23T08:01:42;97284.25;;;7.53;69.12
25947;BME280;13745;51.470;9.894;2024-02-23T08:04:27;97284.72;;;7.65;69.40
25947;BME280;13745;51.470;9.894;2024-02-23T08:07:12;97289.97;;;7.85;68.84
25947;BME280;13745;51.470;9.894;2024-02-23T08:09:58;97286.78;;;8.02;68.33
25947;BME280;13745;51.470;9.894;2024-02-23T08:12:43;97277.47;;;8.21;67.27
25947;BME280;13745;51.470;9.894;2024-02-23T08:15:28;97284.16;;;8.49;67.20
25947;BME280;13745;51.470;9.894;2024-02-23T08:18:15;97280.44;;;8.56;66.84
25947;BME280;13745;51.470;9.894;2024-02-23T08:21:00;97288.38;;;8.51;66.92
25947;BME280;13745;51.470;9.894;2024-02-23T08:23:46;97288.34;;;8.53;66.79
25947;BME280;13745;51.470;9.894;2024-02-23T08:26:32;97286.09;;;8.43;65.90
25947;BME280;13745;51.470;9.894;2024-02-23T08:29:18;97278.78;;;8.55;66.13
25947;BME280;13745;51.470;9.894;2024-02-23T08:32:03;97284.09;;;8.72;65.66
25947;BME280;13745;51.470;9.894;2024-02-23T08:34:49;97290.44;;;9.07;65.14
25947;BME280;13745;51.470;9.894;2024-02-23T08:37:37;97295.41;;;9.32;63.54
25947;BME280;13745;51.470;9.894;2024-02-23T08:40:22;97296.66;;;9.44;63.81
25947;BME280;13745;51.470;9.894;2024-02-23T08:43:07;97305.75;;;9.92;63.31
25947;BME280;13745;51.470;9.894;2024-02-23T08:45:52;97305.81;;;9.90;62.71
25947;BME280;13745;51.470;9.894;2024-02-23T08:48:37;97305.41;;;9.80;62.74
25947;BME280;13745;51.470;9.894;2024-02-23T08:51:23;97309.41;;;9.67;62.81
25947;BME280;13745;51.470;9.894;2024-02-23T08:54:08;97304.81;;;9.94;62.51
25947;BME280;13745;51.470;9.894;2024-02-23T08:56:53;97316.19;;;10.09;61.99
25947;BME280;13745;51.470;9.894;2024-02-23T08:59:38;97297.63;;;10.38;61.61
25947;BME280;13745;51.470;9.894;2024-02-23T09:02:23;97300.22;;;10.38;61.45
25947;BME280;13745;51.470;9.894;2024-02-23T09:05:09;97294.03;;;10.41;61.41
25947;BME280;13745;51.470;9.894;2024-02-23T09:07:55;97291.94;;;10.49;61.25
25947;BME280;13745;51.470;9.894;2024-02-23T09:10:40;97294.56;;;11.03;60.62
25947;BME280;13745;51.470;9.894;2024-02-23T09:13:26;97274.16;;;13.81;56.89
25947;BME280;13745;51.470;9.894;2024-02-23T09:16:13;97268.09;;;17.63;50.71
25947;BME280;13745;51.470;9.894;2024-02-23T09:19:00;97255.75;;;21.88;43.48
25947;BME280;13745;51.470;9.894;2024-02-23T09:21:45;97260.69;;;25.25;38.92
25947;BME280;13745;51.470;9.894;2024-02-23T09:24:31;97263.81;;;27.34;36.22
25947;BME280;13745;51.470;9.894;2024-02-23T09:27:17;97278.25;;;29.32;34.36
25947;BME280;13745;51.470;9.894;2024-02-23T09:30:02;97255.78;;;30.25;33.35
25947;BME280;13745;51.470;9.894;2024-02-23T09:32:47;97256.69;;;30.80;32.11
25947;BME280;13745;51.470;9.894;2024-02-23T09:35:32;97246.72;;;31.55;31.53
25947;BME280;13745;51.470;9.894;2024-02-23T09:38:17;97236.63;;;31.70;31.44
25947;BME280;13745;51.470;9.894;2024-02-23T09:41:11;97219.72;;;31.56;30.51
25947;BME280;13745;51.470;9.894;2024-02-23T09:44:01;97227.38;;;31.79;30.28
25947;BME280;13745;51.470;9.894;2024-02-23T09:46:46;97231.13;;;32.43;29.77
25947;BME280;13745;51.470;9.894;2024-02-23T09:49:32;97234.03;;;32.41;29.57
25947;BME280;13745;51.470;9.894;2024-02-23T09:52:19;97217.75;;;32.30;29.14
25947;BME280;13745;51.470;9.894;2024-02-23T09:55:06;97214.50;;;32.73;28.78
25947;BME280;13745;51.470;9.894;2024-02-23T09:57:55;97216.63;;;32.57;28.32
25947;BME280;13745;51.470;9.894;2024-02-23T10:00:43;97221.28;;;32.24;28.57
25947;BME280;13745;51.470;9.894;2024-02-23T10:03:29;97222.75;;;32.20;28.79
25947;BME280;13745;51.470;9.894;2024-02-23T10:06:15;97250.56;;;32.25;28.20
25947;BME280;13745;51.470;9.894;2024-02-23T10:09:00;97219.16;;;32.52;27.65
25947;BME280;13745;51.470;9.894;2024-02-23T10:11:51;97223.53;;;32.27;27.95
25947;BME280;13745;51.470;9.894;2024-02-23T10:14:38;97209.59;;;31.92;27.70
25947;BME280;13745;51.470;9.894;2024-02-23T10:17:25;97214.97;;;31.85;27.50
25947;BME280;13745;51.470;9.894;2024-02-23T10:20:11;97227.16;;;31.48;27.51
25947;BME280;13745;51.470;9.894;2024-02-23T10:22:56;97226.13;;;31.22;27.89
25947;BME280;13745;51.470;9.894;2024-02-23T10:25:41;97211.91;;;31.88;27.36
25947;BME280;13745;51.470;9.894;2024-02-23T10:28:26;97236.69;;;32.55;26.85
25947;BME280;13745;51.470;9.894;2024-02-23T10:31:13;97249.75;;;32.18;27.38
25947;BME280;13745;51.470;9.894;2024-02-23T10:33:58;97240.91;;;32.31;27.27
25947;BME280;13745;51.470;9.894;2024-02-23T10:36:44;97235.09;;;32.40;26.54
25947;BME280;13745;51.470;9.894;2024-02-23T10:39:29;97232.00;;;32.24;27.24
25947;BME280;13745;51.470;9.894;2024-02-23T10:42:16;97235.50;;;32.89;26.71
25947;BME280;13745;51.470;9.894;2024-02-23T10:45:05;97242.13;;;33.99;26.41
25947;BME280;13745;51.470;9.894;2024-02-23T10:47:55;97232.91;;;33.45;26.18
25947;BME280;13745;51.470;9.894;2024-02-23T10:50:40;97245.88;;;32.14;26.30
25947;BME280;13745;51.470;9.894;2024-02-23T10:53:27;97242.78;;;32.68;26.34
25947;BME280;13745;51.470;9.894;2024-02-23T10:56:13;97238.03;;;33.72;26.38
25947;BME280;13745;51.470;9.894;2024-02-23T10:58:58;97240.66;;;30.52;27.82
25947;BME280;13745;51.470;9.894;2024-02-23T11:01:44;97252.69;;;26.38;30.25
25947;BME280;13745;51.470;9.894;2024-02-23T11:04:32;97256.59;;;21.88;33.83
25947;BME280;13745;51.470;9.894;2024-02-23T11:07:19;97258.13;;;20.46;35.59
25947;BME280;13745;51.470;9.894;2024-02-23T11:10:05;97242.75;;;21.67;34.68
25947;BME280;13745;51.470;9.894;2024-02-23T11:12:57;97242.88;;;24.93;32.00
25947;BME280;13745;51.470;9.894;2024-02-23T11:15:42;97245.59;;;25.09;31.44
25947;BME280;13745;51.470;9.894;2024-02-23T11:18:28;97239.09;;;29.39;28.57
25947;BME280;13745;51.470;9.894;2024-02-23T11:21:15;97240.25;;;32.35;26.92
25947;BME280;13745;51.470;9.894;2024-02-23T11:24:02;97237.75;;;34.23;25.23
25947;BME280;13745;51.470;9.894;2024-02-23T11:26:48;97240.78;;;34.82;25.12
25947;BME280;13745;51.470;9.894;2024-02-23T11:29:34;97220.94;;;35.90;24.24
25947;BME280;13745;51.470;9.894;2024-02-23T11:32:20;97242.69;;;37.16;23.54
25947;BME280;13745;51.470;9.894;2024-02-23T11:35:06;97210.38;;;38.05;23.52
25947;BME280;13745;51.470;9.894;2024-02-23T11:37:54;97223.41;;;38.90;22.47
25947;BME280;13745;51.470;9.894;2024-02-23T11:40:42;97218.88;;;39.01;22.87
25947;BME280;13745;51.470;9.894;2024-02-23T11:43:27;97241.81;;;39.47;22.68
25947;BME280;13745;51.470;9.894;2024-02-23T11:46:14;97225.66;;;39.95;22.57
25947;BME280;13745;51.470;9.894;2024-02-23T11:48:59;97237.59;;;40.98;22.16
25947;BME280;13745;51.470;9.894;2024-02-23T11:51:44;97241.97;;;41.20;21.88
25947;BME280;13745;51.470;9.894;2024-02-23T11:54:31;97251.75;;;40.43;21.42
25947;BME280;13745;51.470;9.894;2024-02-23T11:57:16;97244.19;;;37.23;23.08
25947;BME280;13745;51.470;9.894;2024-02-23T12:00:02;97250.59;;;36.25;23.13
25947;BME280;13745;51.470;9.894;2024-02-23T12:02:49;97252.06;;;38.42;22.13
25947;BME280;13745;51.470;9.894;2024-02-23T12:05:34;97262.00;;;39.02;21.55
25947;BME280;13745;51.470;9.894;2024-02-23T12:08:19;97242.59;;;38.23;22.20
25947;BME280;13745;51.470;9.894;2024-02-23T12:11:06;97253.44;;;36.42;23.07
25947;BME280;13745;51.470;9.894;2024-02-23T12:13:52;97230.13;;;38.44;22.02
25947;BME280;13745;51.470;9.894;2024-02-23T12:16:39;97230.63;;;35.14;23.66
25947;BME280;13745;51.470;9.894;2024-02-23T12:19:25;97231.81;;;36.07;22.67
25947;BME280;13745;51.470;9.894;2024-02-23T12:22:10;97228.78;;;37.86;22.40
25947;BME280;13745;51.470;9.894;2024-02-23T12:24:57;97228.72;;;35.03;23.47
25947;BME280;13745;51.470;9.894;2024-02-23T12:27:44;97232.19;;;32.35;25.04
25947;BME280;13745;51.470;9.894;2024-02-23T12:30:29;97230.69;;;29.21;26.79
25947;BME280;13745;51.470;9.894;2024-02-23T12:33:20;97237.50;;;27.54;27.56
25947;BME280;13745;51.470;9.894;2024-02-23T12:36:05;97247.22;;;23.40;29.99
25947;BME280;13745;51.470;9.894;2024-02-23T12:38:50;97245.88;;;21.90;31.63
25947;BME280;13745;51.470;9.894;2024-02-23T12:41:35;97259.31;;;20.02;33.08
25947;BME280;13745;51.470;9.894;2024-02-23T12:44:23;97258.00;;;18.37;34.86
25947;BME280;13745;51.470;9.894;2024-02-23T12:47:08;97272.34;;;17.07;36.24
25947;BME280;13745;51.470;9.894;2024-02-23T12:49:53;97272.78;;;16.40;37.73
25947;BME280;13745;51.470;9.894;2024-02-23T12:52:38;97257.69;;;19.80;35.06
25947;BME280;13745;51.470;9.894;2024-02-23T12:55:23;97254.56;;;24.58;31.18
25947;BME280;13745;51.470;9.894;2024-02-23T12:58:09;97235.53;;;29.10;27.63
25947;BME280;13745;51.470;9.894;2024-02-23T13:00:55;97259.94;;;31.70;26.18
25947;BME280;13745;51.470;9.894;2024-02-23T13:03:41;97242.63;;;33.08;25.24
25947;BME280;13745;51.470;9.894;2024-02-23T13:06:26;97247.22;;;33.89;24.87
25947;BME280;13745;51.470;9.894;2024-02-23T13:09:11;97249.50;;;36.61;23.54
25947;BME280;13745;51.470;9.894;2024-02-23T13:11:58;97256.56;;;33.80;24.48
25947;BME280;13745;51.470;9.894;2024-02-23T13:14:43;97253.56;;;33.45;24.91
25947;BME280;13745;51.470;9.894;2024-02-23T13:17:29;97251.44;;;35.90;23.74
25947;BME280;13745;51.470;9.894;2024-02-23T13:20:15;97258.84;;;37.56;22.50
25947;BME280;13745;51.470;9.894;2024-02-23T13:23:00;97250.69;;;38.84;22.04
25947;BME280;13745;51.470;9.894;2024-02-23T13:25:45;97254.16;;;39.28;21.78
25947;BME280;13745;51.470;9.894;2024-02-23T13:28:30;97248.88;;;39.75;21.45
25947;BME280;13745;51.470;9.894;2024-02-23T13:31:16;97259.28;;;37.19;22.71
25947;BME280;13745;51.470;9.894;2024-02-23T13:34:02;97252.34;;;35.19;23.64
25947;BME280;13745;51.470;9.894;2024-02-23T13:36:47;97250.09;;;37.20;22.58
25947;BME280;13745;51.470;9.894;2024-02-23T13:39:33;97237.44;;;37.37;22.43
25947;BME280;13745;51.470;9.894;2024-02-23T13:42:19;97245.50;;;38.21;22.17
25947;BME280;13745;51.470;9.894;2024-02-23T13:45:05;97242.50;;;39.05;22.00
25947;BME280;13745;51.470;9.894;2024-02-23T13:47:57;97233.44;;;39.17;21.75
25947;BME280;13745;51.470;9.894;2024-02-23T13:50:44;97241.22;;;40.04;22.57
25947;BME280;13745;51.470;9.894;2024-02-23T13:53:29;97245.56;;;40.48;21.25
25947;BME280;13745;51.470;9.894;2024-02-23T13:56:15;97246.88;;;39.98;21.72
25947;BME280;13745;51.470;9.894;2024-02-23T13:59:01;97249.25;;;39.25;21.49
25947;BME280;13745;51.470;9.894;2024-02-23T14:01:46;97254.41;;;38.17;22.07
25947;BME280;13745;51.470;9.894;2024-02-23T14:04:31;97263.03;;;36.14;22.40
25947;BME280;13745;51.470;9.894;2024-02-23T14:07:17;97242.53;;;33.78;23.65
25947;BME280;13745;51.470;9.894;2024-02-23T14:10:03;97264.44;;;30.68;24.50
25947;BME280;13745;51.470;9.894;2024-02-23T14:12:49;97271.31;;;26.77;27.56
25947;BME280;13745;51.470;9.894;2024-02-23T14:15:34;97282.00;;;26.13;28.04
25947;BME280;13745;51.470;9.894;2024-02-23T14:18:19;97265.69;;;24.70;29.08
25947;BME280;13745;51.470;9.894;2024-02-23T14:21:04;97273.53;;;22.33;30.89
25947;BME280;13745;51.470;9.894;2024-02-23T14:23:51;97267.66;;;21.92;31.24
25947;BME280;13745;51.470;9.894;2024-02-23T14:26:36;97269.78;;;21.88;31.61
25947;BME280;13745;51.470;9.894;2024-02-23T14:29:21;97263.53;;;21.90;31.49
25947;BME280;13745;51.470;9.894;2024-02-23T14:32:06;97284.28;;;21.55;32.01
25947;BME280;13745;51.470;9.894;2024-02-23T14:34:52;97277.13;;;20.19;33.23
25947;BME280;13745;51.470;9.894;2024-02-23T14:37:37;97293.81;;;19.25;34.41
25947;BME280;13745;51.470;9.894;2024-02-23T14:40:23;97298.78;;;19.07;35.12
25947;BME280;13745;51.470;9.894;2024-02-23T14:43:09;97298.69;;;18.20;35.64
25947;BME280;13745;51.470;9.894;2024-02-23T14:45:54;97299.13;;;17.46;36.63